Time;durP1;ratioP1;P1;durP2;ratioP2;P2;SDS_P1;SDS_P2;PMS_P1;PMS_P2;Temp;Humidity;BMP_temperature;BMP_pressure;BME280_temperature;BME280_humidity;BME280_pressure;Samples;Min_cycle;Max_cycle;Signal;HPM_P1;HPM_P2
2021/07/22 00:00:00;;;;;;;18.10;13.27;;;;;;;;;;3558005;40;20797;-81
2021/07/22 00:02:29;;;;;;;18.53;12.30;;;;;;;;;;3560054;40;20410;-82
2021/07/22 00:04:56;;;;;;;15.03;11.80;;;;;;;;;;3550411;40;20470;-82
2021/07/22 00:07:22;;;;;;;14.43;10.67;;;;;;;;;;3556618;40;20973;-82
2021/07/22 00:09:49;;;;;;;13.40;11.70;;;;;;;;;;3560117;40;20433;-81
2021/07/22 00:12:15;;;;;;;18.47;11.93;;;;;;;;;;3551575;40;21126;-81
2021/07/22 00:14:42;;;;;;;12.70;10.10;;;;;;;;;;3540750;40;21154;-81
2021/07/22 00:17:09;;;;;;;14.50;10.97;;;;;;;;;;3552969;40;21721;-81
2021/07/22 00:19:35;;;;;;;15.60;11.80;;;;;;;;;;3558712;40;20560;-81
2021/07/22 00:22:03;;;;;;;14.30;11.30;;;;;;;;;;3559925;40;20398;-80
2021/07/22 00:24:30;;;;;;;12.97;11.00;;;;;;;;;;3559349;40;20443;-82
2021/07/22 00:26:56;;;;;;;15.63;11.30;;;;;;;;;;3560583;40;21098;-81
2021/07/22 00:29:23;;;;;;;12.60;10.90;;;;;;;;;;3550767;40;20433;-81
2021/07/22 00:31:55;;;;;;;19.23;11.17;;;;;;;;;;3561048;40;20524;-82
2021/07/22 00:34:21;;;;;;;13.80;11.63;;;;;;;;;;3559577;40;21514;-81
2021/07/22 00:36:47;;;;;;;15.67;11.60;;;;;;;;;;3557458;40;20554;-82
2021/07/22 00:39:15;;;;;;;16.33;10.67;;;;;;;;;;3560008;40;20736;-81
2021/07/22 00:41:43;;;;;;;14.20;10.70;;;;;;;;;;3555074;40;20419;-81
2021/07/22 00:44:11;;;;;;;14.13;11.03;;;;;;;;;;3542280;40;20937;-81
2021/07/22 00:46:38;;;;;;;16.53;11.20;;;;;;;;;;3548925;40;20446;-81
2021/07/22 00:49:08;;;;;;;13.60;10.40;;;;;;;;;;3550956;40;20462;-81
2021/07/22 00:51:34;;;;;;;15.67;12.40;;;;;;;;;;3539619;40;20520;-81
2021/07/22 00:54:00;;;;;;;12.83;10.87;;;;;;;;;;3558227;40;20487;-81
2021/07/22 00:56:27;;;;;;;15.40;11.80;;;;;;;;;;3558137;40;20402;-82
2021/07/22 00:58:53;;;;;;;11.50;10.30;;;;;;;;;;3548826;40;20771;-81
2021/07/22 01:01:20;;;;;;;15.20;11.50;;;;;;;;;;3559767;40;20415;-81
2021/07/22 01:03:47;;;;;;;14.03;10.60;;;;;;;;;;3558993;40;20485;-82
2021/07/22 01:06:13;;;;;;;13.10;10.50;;;;;;;;;;3569682;39;20422;-82
2021/07/22 01:08:39;;;;;;;16.37;10.43;;;;;;;;;;3553157;40;21887;-81
2021/07/22 01:11:05;;;;;;;16.40;10.67;;;;;;;;;;3551774;40;20394;-83
2021/07/22 01:13:31;;;;;;;15.90;11.07;;;;;;;;;;3560156;40;20459;-81
2021/07/22 01:15:58;;;;;;;15.83;11.07;;;;;;;;;;3551337;40;20523;-81
2021/07/22 01:18:24;;;;;;;12.87;10.67;;;;;;;;;;3569396;40;20436;-81
2021/07/22 01:20:50;;;;;;;12.83;10.67;;;;;;;;;;3560999;40;20412;-82
2021/07/22 01:23:16;;;;;;;12.40;10.63;;;;;;;;;;3562741;40;20471;-82
2021/07/22 01:25:42;;;;;;;13.40;10.33;;;;;;;;;;3551572;40;20409;-82
2021/07/22 01:28:09;;;;;;;13.93;10.97;;;;;;;;;;3562927;40;20473;-82
2021/07/22 01:30:35;;;;;;;16.53;11.07;;;;;;;;;;3561303;40;22264;-82
2021/07/22 01:33:01;;;;;;;16.73;11.23;;;;;;;;;;3568250;40;20449;-82
2021/07/22 01:35:27;;;;;;;13.03;10.47;;;;;;;;;;3558235;40;20464;-82
2021/07/22 01:37:53;;;;;;;13.73;10.90;;;;;;;;;;3548792;40;20740;-82
2021/07/22 01:40:19;;;;;;;14.63;10.20;;;;;;;;;;3557440;40;20487;-82
2021/07/22 01:42:45;;;;;;;16.70;11.73;;;;;;;;;;3571783;40;20432;-82
2021/07/22 01:45:12;;;;;;;14.17;10.50;;;;;;;;;;3562962;40;21008;-82
2021/07/22 01:47:38;;;;;;;12.50;10.27;;;;;;;;;;3569910;40;20448;-82
2021/07/22 01:50:05;;;;;;;13.80;11.57;;;;;;;;;;3560863;40;20406;-81
2021/07/22 01:52:31;;;;;;;13.60;10.70;;;;;;;;;;3551765;40;20518;-82
2021/07/22 01:54:59;;;;;;;17.03;10.80;;;;;;;;;;3564270;40;20413;-81
2021/07/22 01:57:26;;;;;;;16.70;11.30;;;;;;;;;;3561574;40;20420;-81
2021/07/22 01:59:53;;;;;;;16.20;10.90;;;;;;;;;;3562171;40;20394;-81
2021/07/22 02:02:19;;;;;;;16.50;11.80;;;;;;;;;;3562580;40;20420;-82
2021/07/22 02:04:51;;;;;;;14.53;11.17;;;;;;;;;;3568680;39;20446;-82
2021/07/22 02:07:17;;;;;;;13.13;11.23;;;;;;;;;;3562511;40;21317;-82
2021/07/22 02:09:44;;;;;;;14.73;10.13;;;;;;;;;;3560398;40;20402;-82
2021/07/22 02:12:10;;;;;;;16.10;10.00;;;;;;;;;;3550957;40;20758;-82
2021/07/22 02:14:39;;;;;;;13.83;10.90;;;;;;;;;;3549500;40;20398;-82
2021/07/22 02:17:06;;;;;;;12.77;9.73;;;;;;;;;;3559879;40;20520;-81
2021/07/22 02:19:32;;;;;;;13.93;11.37;;;;;;;;;;3550017;40;20481;-81
2021/07/22 02:21:58;;;;;;;13.10;9.93;;;;;;;;;;3551306;40;20433;-82
2021/07/22 02:24:24;;;;;;;15.33;10.47;;;;;;;;;;3546488;40;20720;-80
2021/07/22 02:26:50;;;;;;;12.30;10.90;;;;;;;;;;3560774;40;20429;-80
2021/07/22 02:29:18;;;;;;;13.80;12.27;;;;;;;;;;3543573;40;21126;-80
2021/07/22 02:31:44;;;;;;;13.93;10.70;;;;;;;;;;3550270;40;20447;-80
2021/07/22 02:34:10;;;;;;;13.50;10.63;;;;;;;;;;3551039;40;21045;-81
2021/07/22 02:36:37;;;;;;;13.70;10.70;;;;;;;;;;3559744;40;20459;-80
2021/07/22 02:39:03;;;;;;;12.07;10.20;;;;;;;;;;3550785;40;20397;-81
2021/07/22 02:41:30;;;;;;;13.43;11.07;;;;;;;;;;3549556;40;20402;-81
2021/07/22 02:43:57;;;;;;;14.37;11.43;;;;;;;;;;3559769;40;20389;-81
2021/07/22 02:46:23;;;;;;;14.00;9.83;;;;;;;;;;3559425;40;20419;-80
2021/07/22 02:48:50;;;;;;;12.03;9.80;;;;;;;;;;3560848;40;20458;-81
2021/07/22 02:51:17;;;;;;;10.13;8.90;;;;;;;;;;3539096;40;20428;-81
2021/07/22 02:53:43;;;;;;;13.00;10.27;;;;;;;;;;3552401;40;20403;-81
2021/07/22 02:56:10;;;;;;;13.23;10.27;;;;;;;;;;3543613;40;20410;-81
2021/07/22 02:58:38;;;;;;;18.53;12.07;;;;;;;;;;3550206;40;20704;-80
2021/07/22 03:01:08;;;;;;;14.20;10.17;;;;;;;;;;3558947;40;20454;-81
2021/07/22 03:03:34;;;;;;;12.20;10.00;;;;;;;;;;3559662;40;20418;-81
2021/07/22 03:06:00;;;;;;;16.00;11.00;;;;;;;;;;3558242;40;20418;-81
2021/07/22 03:08:27;;;;;;;11.60;9.80;;;;;;;;;;3549164;40;20459;-80
2021/07/22 03:10:53;;;;;;;12.40;9.97;;;;;;;;;;3560750;40;21167;-81
2021/07/22 03:13:19;;;;;;;13.07;11.60;;;;;;;;;;3559934;40;20421;-81
2021/07/22 03:15:45;;;;;;;13.70;10.03;;;;;;;;;;3559179;40;20418;-81
2021/07/22 03:18:11;;;;;;;15.00;10.23;;;;;;;;;;3561266;40;20424;-81
2021/07/22 03:20:38;;;;;;;18.83;12.10;;;;;;;;;;3559488;40;20409;-80
2021/07/22 03:23:05;;;;;;;15.43;11.10;;;;;;;;;;3544464;40;20398;-81
2021/07/22 03:25:31;;;;;;;13.30;10.67;;;;;;;;;;3541503;40;21120;-80
2021/07/22 03:28:00;;;;;;;14.90;10.87;;;;;;;;;;3559323;40;20446;-81
2021/07/22 03:30:27;;;;;;;13.97;10.37;;;;;;;;;;3543074;40;20430;-80
2021/07/22 03:32:53;;;;;;;14.80;11.23;;;;;;;;;;3560283;40;20406;-81
2021/07/22 03:35:20;;;;;;;12.00;10.00;;;;;;;;;;3540408;40;21386;-81
2021/07/22 03:37:46;;;;;;;15.80;11.60;;;;;;;;;;3561180;40;20441;-81
2021/07/22 03:40:12;;;;;;;12.10;10.37;;;;;;;;;;3552159;40;20419;-81
2021/07/22 03:42:40;;;;;;;12.80;10.73;;;;;;;;;;3549911;40;20446;-81
2021/07/22 03:45:06;;;;;;;13.70;10.57;;;;;;;;;;3557385;40;20461;-80
2021/07/22 03:47:33;;;;;;;12.00;10.33;;;;;;;;;;3540925;40;20759;-81
2021/07/22 03:50:02;;;;;;;13.77;10.40;;;;;;;;;;3550169;40;20431;-80
2021/07/22 03:52:28;;;;;;;13.40;11.00;;;;;;;;;;3549809;40;22779;-80
2021/07/22 03:54:54;;;;;;;15.70;10.77;;;;;;;;;;3558204;40;20549;-81
2021/07/22 03:57:20;;;;;;;15.10;11.20;;;;;;;;;;3549471;40;20401;-81
2021/07/22 03:59:47;;;;;;;14.10;10.17;;;;;;;;;;3559810;40;20419;-81
2021/07/22 04:02:13;;;;;;;15.10;10.90;;;;;;;;;;3558682;40;20423;-81
2021/07/22 04:04:39;;;;;;;14.80;10.43;;;;;;;;;;3559226;40;20442;-81
2021/07/22 04:07:05;;;;;;;12.53;10.47;;;;;;;;;;3551292;40;20425;-81
2021/07/22 04:09:31;;;;;;;17.73;12.37;;;;;;;;;;3560114;40;20423;-81
2021/07/22 04:11:57;;;;;;;14.70;11.50;;;;;;;;;;3558708;40;20497;-81
2021/07/22 04:14:23;;;;;;;15.30;12.70;;;;;;;;;;3540616;40;20427;-80
2021/07/22 04:16:49;;;;;;;20.30;13.70;;;;;;;;;;3551642;40;20458;-82
2021/07/22 04:19:16;;;;;;;16.40;12.07;;;;;;;;;;3541742;40;20427;-81
2021/07/22 04:21:42;;;;;;;13.70;11.23;;;;;;;;;;3551010;40;20842;-81
2021/07/22 04:24:09;;;;;;;17.30;11.60;;;;;;;;;;3567094;40;20424;-81
2021/07/22 04:26:35;;;;;;;13.53;11.07;;;;;;;;;;3558112;40;20415;-81
2021/07/22 04:29:02;;;;;;;14.80;10.80;;;;;;;;;;3541449;40;21217;-80
2021/07/22 04:31:28;;;;;;;14.20;11.27;;;;;;;;;;3557528;40;20463;-80
2021/07/22 04:33:55;;;;;;;13.20;9.50;;;;;;;;;;3559846;40;20808;-80
2021/07/22 04:36:22;;;;;;;15.70;12.60;;;;;;;;;;3542306;40;21071;-80
2021/07/22 04:38:49;;;;;;;15.70;11.50;;;;;;;;;;3559636;40;20399;-81
2021/07/22 04:41:16;;;;;;;14.80;11.90;;;;;;;;;;3548991;40;20411;-81
2021/07/22 04:43:43;;;;;;;18.67;10.70;;;;;;;;;;3549042;40;20459;-81
2021/07/22 04:46:09;;;;;;;13.57;10.60;;;;;;;;;;3557912;40;20428;-81
2021/07/22 04:48:35;;;;;;;14.60;11.37;;;;;;;;;;3556660;40;21112;-81
2021/07/22 04:51:07;;;;;;;15.87;12.40;;;;;;;;;;3549614;40;21040;-81
2021/07/22 04:53:34;;;;;;;15.33;11.93;;;;;;;;;;3558150;40;20462;-80
2021/07/22 04:56:00;;;;;;;13.33;10.70;;;;;;;;;;3558584;40;20401;-81
2021/07/22 04:58:27;;;;;;;13.37;11.17;;;;;;;;;;3559151;40;20790;-81
2021/07/22 05:00:56;;;;;;;20.60;12.40;;;;;;;;;;3555260;40;20443;-81
2021/07/22 05:03:22;;;;;;;15.33;11.67;;;;;;;;;;3539011;40;20458;-82
2021/07/22 05:05:48;;;;;;;16.20;10.70;;;;;;;;;;3547990;40;20410;-82
2021/07/22 05:08:15;;;;;;;12.57;10.80;;;;;;;;;;3553077;40;20501;-80
2021/07/22 05:10:41;;;;;;;14.13;9.73;;;;;;;;;;3558519;40;20528;-80
2021/07/22 05:13:07;;;;;;;14.63;11.53;;;;;;;;;;3551007;40;20446;-80
2021/07/22 05:15:34;;;;;;;20.43;11.60;;;;;;;;;;3549444;40;20413;-81
2021/07/22 05:18:00;;;;;;;16.43;11.10;;;;;;;;;;3551588;40;20744;-82
2021/07/22 05:20:26;;;;;;;17.40;10.63;;;;;;;;;;3552597;40;21180;-82
2021/07/22 05:22:53;;;;;;;16.90;11.70;;;;;;;;;;3552369;40;20426;-82
2021/07/22 05:25:19;;;;;;;16.97;10.97;;;;;;;;;;3570451;40;20408;-82
2021/07/22 05:27:47;;;;;;;14.43;11.57;;;;;;;;;;3552192;40;20475;-83
2021/07/22 05:30:13;;;;;;;13.87;11.07;;;;;;;;;;3562203;40;20395;-82
2021/07/22 05:32:40;;;;;;;14.07;10.27;;;;;;;;;;3552184;40;20434;-82
2021/07/22 05:35:08;;;;;;;14.13;10.37;;;;;;;;;;3549957;40;20401;-83
2021/07/22 05:37:35;;;;;;;11.03;9.90;;;;;;;;;;3571517;40;20480;-81
2021/07/22 05:40:02;;;;;;;14.00;10.73;;;;;;;;;;3552337;40;20417;-82
2021/07/22 05:42:28;;;;;;;16.43;11.20;;;;;;;;;;3551456;40;20471;-81
2021/07/22 05:44:55;;;;;;;13.40;10.10;;;;;;;;;;3560230;40;20428;-82
2021/07/22 05:47:21;;;;;;;15.77;10.83;;;;;;;;;;3561444;40;20409;-82
2021/07/22 05:49:47;;;;;;;13.23;10.83;;;;;;;;;;3550984;40;20852;-81
2021/07/22 05:52:14;;;;;;;14.63;11.40;;;;;;;;;;3551930;40;20753;-83
2021/07/22 05:54:40;;;;;;;15.47;11.87;;;;;;;;;;3561737;40;20822;-83
2021/07/22 05:57:07;;;;;;;11.70;9.57;;;;;;;;;;3552997;40;20794;-83
2021/07/22 05:59:33;;;;;;;14.37;10.57;;;;;;;;;;3552674;40;20403;-82
2021/07/22 06:01:59;;;;;;;11.70;9.50;;;;;;;;;;3552453;40;20924;-82
2021/07/22 06:04:25;;;;;;;12.50;10.13;;;;;;;;;;3552139;40;20443;-82
2021/07/22 06:06:51;;;;;;;12.70;9.57;;;;;;;;;;3569749;40;20522;-82
2021/07/22 06:09:24;;;;;;;14.70;10.53;;;;;;;;;;3560825;40;20535;-82
2021/07/22 06:11:51;;;;;;;11.47;10.27;;;;;;;;;;3561151;40;20421;-82
2021/07/22 06:14:17;;;;;;;15.47;10.03;;;;;;;;;;3560567;40;20408;-82
2021/07/22 06:16:43;;;;;;;13.80;11.20;;;;;;;;;;3555606;40;21084;-81
2021/07/22 06:19:09;;;;;;;17.50;10.83;;;;;;;;;;3561055;40;20421;-81
2021/07/22 06:21:36;;;;;;;14.03;10.10;;;;;;;;;;3547470;40;20441;-82
2021/07/22 06:24:02;;;;;;;16.70;10.83;;;;;;;;;;3553396;40;20418;-82
2021/07/22 06:26:32;;;;;;;10.60;9.50;;;;;;;;;;3554823;40;20436;-81
2021/07/22 06:28:58;;;;;;;13.37;8.47;;;;;;;;;;3563440;40;20421;-82
2021/07/22 06:31:24;;;;;;;17.37;10.70;;;;;;;;;;3555258;40;21169;-82
2021/07/22 06:33:51;;;;;;;13.60;9.10;;;;;;;;;;3563433;40;20386;-82
2021/07/22 06:36:19;;;;;;;13.23;10.03;;;;;;;;;;3564296;40;20404;-82
2021/07/22 06:38:45;;;;;;;10.80;8.73;;;;;;;;;;3561430;40;20815;-82
2021/07/22 06:41:12;;;;;;;13.10;10.20;;;;;;;;;;3562286;40;20486;-82
2021/07/22 06:43:38;;;;;;;9.67;8.67;;;;;;;;;;3564336;40;20842;-83
2021/07/22 06:46:04;;;;;;;10.40;9.40;;;;;;;;;;3572744;40;20414;-81
2021/07/22 06:48:37;;;;;;;11.90;7.90;;;;;;;;;;3557979;40;20417;-82
2021/07/22 06:51:07;;;;;;;10.03;8.67;;;;;;;;;;3561233;40;20462;-83
2021/07/22 06:53:36;;;;;;;11.33;9.33;;;;;;;;;;3552208;40;20441;-83
2021/07/22 06:56:10;;;;;;;11.83;9.20;;;;;;;;;;3551864;40;20417;-82
2021/07/22 06:58:36;;;;;;;10.10;8.53;;;;;;;;;;3550823;40;21092;-83
2021/07/22 07:01:05;;;;;;;10.10;8.87;;;;;;;;;;3562361;40;20398;-83
2021/07/22 07:03:35;;;;;;;11.03;8.67;;;;;;;;;;3562068;40;20805;-83
2021/07/22 07:06:04;;;;;;;11.70;10.07;;;;;;;;;;3544881;40;21173;-83
2021/07/22 07:08:32;;;;;;;17.77;8.93;;;;;;;;;;3557302;40;20469;-82
2021/07/22 07:11:03;;;;;;;11.67;9.77;;;;;;;;;;3552621;40;20438;-83
2021/07/22 07:13:30;;;;;;;14.60;10.47;;;;;;;;;;3547970;40;20412;-83
2021/07/22 07:15:57;;;;;;;16.50;10.03;;;;;;;;;;3549077;40;20552;-81
2021/07/22 07:18:27;;;;;;;14.50;10.03;;;;;;;;;;3538083;40;20463;-82
2021/07/22 07:20:54;;;;;;;13.03;10.20;;;;;;;;;;3556017;40;20423;-83
2021/07/22 07:23:21;;;;;;;13.57;10.80;;;;;;;;;;3547893;40;20423;-81
2021/07/22 07:25:50;;;;;;;13.40;10.37;;;;;;;;;;3558419;40;20685;-81
2021/07/22 07:28:16;;;;;;;10.80;9.77;;;;;;;;;;3555622;40;20408;-81
2021/07/22 07:30:45;;;;;;;14.80;11.00;;;;;;;;;;3560541;40;20435;-82
2021/07/22 07:33:17;;;;;;;13.20;10.70;;;;;;;;;;3563813;40;20523;-82
2021/07/22 07:35:43;;;;;;;11.33;8.47;;;;;;;;;;3560495;40;20437;-82
2021/07/22 07:38:10;;;;;;;12.00;10.80;;;;;;;;;;3562039;40;20423;-81
2021/07/22 07:40:36;;;;;;;10.37;9.20;;;;;;;;;;3556615;40;20724;-84
2021/07/22 07:43:07;;;;;;;11.97;10.13;;;;;;;;;;3560160;40;20558;-82
2021/07/22 07:45:35;;;;;;;9.40;8.43;;;;;;;;;;3558510;40;20506;-83
2021/07/22 07:48:02;;;;;;;13.13;9.83;;;;;;;;;;3552831;40;20407;-82
2021/07/22 07:50:29;;;;;;;13.23;9.40;;;;;;;;;;3552284;40;20419;-83
2021/07/22 07:52:56;;;;;;;13.00;9.50;;;;;;;;;;3549422;40;20855;-83
2021/07/22 07:55:22;;;;;;;13.20;9.23;;;;;;;;;;3550182;40;21147;-83
2021/07/22 07:57:49;;;;;;;13.47;10.43;;;;;;;;;;3551286;40;20412;-83
2021/07/22 08:00:15;;;;;;;12.37;11.07;;;;;;;;;;3559751;40;20737;-83
2021/07/22 08:02:41;;;;;;;10.70;9.20;;;;;;;;;;3551555;40;20474;-83
2021/07/22 08:05:07;;;;;;;14.43;10.47;;;;;;;;;;3559021;40;20616;-83
2021/07/22 08:07:34;;;;;;;14.27;9.60;;;;;;;;;;3565138;40;20473;-83
2021/07/22 08:10:01;;;;;;;10.63;9.53;;;;;;;;;;3553912;40;20567;-83
2021/07/22 08:12:28;;;;;;;12.47;10.53;;;;;;;;;;3574155;40;20394;-83
2021/07/22 08:14:54;;;;;;;11.70;9.63;;;;;;;;;;3563306;40;20444;-83
2021/07/22 08:17:23;;;;;;;11.03;9.20;;;;;;;;;;3562534;40;20860;-83
2021/07/22 08:19:50;;;;;;;13.07;10.97;;;;;;;;;;3556328;40;20414;-84
2021/07/22 08:22:17;;;;;;;13.47;11.27;;;;;;;;;;3556503;40;20924;-83
2021/07/22 08:24:45;;;;;;;16.10;11.37;;;;;;;;;;3572756;40;20521;-83
2021/07/22 08:27:12;;;;;;;12.30;10.80;;;;;;;;;;3564453;40;20421;-83
2021/07/22 08:29:39;;;;;;;16.13;12.07;;;;;;;;;;3549639;40;20513;-83
2021/07/22 08:32:05;;;;;;;14.07;12.67;;;;;;;;;;3563235;40;20422;-82
2021/07/22 08:34:31;;;;;;;17.07;11.40;;;;;;;;;;3554627;40;20457;-82
2021/07/22 08:36:57;;;;;;;20.70;14.70;;;;;;;;;;3565732;40;20545;-83
2021/07/22 08:39:24;;;;;;;17.90;14.87;;;;;;;;;;3563239;40;20432;-83
2021/07/22 08:41:50;;;;;;;18.57;15.77;;;;;;;;;;3567068;40;20492;-84
2021/07/22 08:44:17;;;;;;;15.87;13.57;;;;;;;;;;3555590;40;20759;-84
2021/07/22 08:46:45;;;;;;;16.83;14.90;;;;;;;;;;3566071;40;20453;-84
2021/07/22 08:49:12;;;;;;;20.10;15.60;;;;;;;;;;3574227;40;20421;-84
2021/07/22 08:51:39;;;;;;;15.63;12.83;;;;;;;;;;3563512;40;20408;-82
2021/07/22 08:54:05;;;;;;;17.87;15.10;;;;;;;;;;3566710;40;20414;-84
2021/07/22 08:56:34;;;;;;;15.93;12.23;;;;;;;;;;3557041;40;20512;-83
2021/07/22 08:59:03;;;;;;;15.97;12.20;;;;;;;;;;3566632;40;20432;-84
2021/07/22 09:01:32;;;;;;;15.40;12.87;;;;;;;;;;3558015;40;20398;-82
2021/07/22 09:04:00;;;;;;;17.70;13.03;;;;;;;;;;3555503;40;20508;-83
2021/07/22 09:06:26;;;;;;;14.43;12.40;;;;;;;;;;3571504;40;20431;-84
2021/07/22 09:08:54;;;;;;;19.37;14.47;;;;;;;;;;3551929;40;20414;-83
2021/07/22 09:11:21;;;;;;;14.43;12.73;;;;;;;;;;3552896;40;20411;-83
2021/07/22 09:14:07;;;;;;;15.40;13.60;;;;;;;;;;3562922;40;20412;-84
2021/07/22 09:16:39;;;;;;;13.83;12.43;;;;;;;;;;3554328;40;20414;-83
2021/07/22 09:19:09;;;;;;;21.40;14.70;;;;;;;;;;3547215;40;20422;-83
2021/07/22 09:21:40;;;;;;;16.50;13.80;;;;;;;;;;3544684;40;20400;-83
2021/07/22 09:24:10;;;;;;;18.97;14.77;;;;;;;;;;3563696;40;20418;-83
2021/07/22 09:26:37;;;;;;;19.77;14.73;;;;;;;;;;3553987;40;20466;-84
2021/07/22 09:29:06;;;;;;;16.97;13.47;;;;;;;;;;3555552;40;20418;-83
2021/07/22 09:31:32;;;;;;;19.20;15.37;;;;;;;;;;3562526;40;20405;-81
2021/07/22 09:33:58;;;;;;;22.57;14.77;;;;;;;;;;3563782;40;20709;-82
2021/07/22 09:36:34;;;;;;;16.63;14.90;;;;;;;;;;3564674;40;20505;-82
2021/07/22 09:39:21;;;;;;;21.67;19.37;;;;;;;;;;3553083;40;20421;-83
2021/07/22 09:42:05;;;;;;;17.10;15.37;;;;;;;;;;3563634;40;20976;-83
2021/07/22 09:44:31;;;;;;;19.80;17.33;;;;;;;;;;3548546;40;20402;-82
2021/07/22 09:47:00;;;;;;;22.23;16.80;;;;;;;;;;3546568;40;20581;-83
2021/07/22 09:49:32;;;;;;;16.93;14.53;;;;;;;;;;3554838;40;20478;-82
2021/07/22 09:52:02;;;;;;;18.90;16.30;;;;;;;;;;3562523;40;20398;-82
2021/07/22 09:54:36;;;;;;;19.97;15.40;;;;;;;;;;3552256;40;20488;-82
2021/07/22 09:57:03;;;;;;;17.80;15.30;;;;;;;;;;3561060;40;20858;-82
2021/07/22 09:59:30;;;;;;;21.37;15.77;;;;;;;;;;3567769;40;20415;-83
2021/07/22 10:02:04;;;;;;;18.93;15.30;;;;;;;;;;3558613;40;20399;-82
2021/07/22 10:04:31;;;;;;;24.90;16.37;;;;;;;;;;3571479;40;20537;-82
2021/07/22 10:07:00;;;;;;;17.77;15.40;;;;;;;;;;3560814;40;20423;-82
2021/07/22 10:09:34;;;;;;;18.30;16.37;;;;;;;;;;3547184;40;20833;-83
2021/07/22 10:12:02;;;;;;;16.10;14.40;;;;;;;;;;3555354;40;20400;-82
2021/07/22 10:14:31;;;;;;;19.20;16.63;;;;;;;;;;3544725;40;20418;-82
2021/07/22 10:17:00;;;;;;;19.10;15.87;;;;;;;;;;3546618;40;20399;-82
2021/07/22 10:19:28;;;;;;;18.67;16.67;;;;;;;;;;3553408;40;20751;-82
2021/07/22 10:21:56;;;;;;;19.77;15.60;;;;;;;;;;3545604;40;20400;-83
2021/07/22 10:24:25;;;;;;;21.50;16.73;;;;;;;;;;3545920;40;20407;-82
2021/07/22 10:26:59;;;;;;;18.53;16.53;;;;;;;;;;3553074;40;20401;-81
2021/07/22 10:29:26;;;;;;;17.50;15.67;;;;;;;;;;3554153;40;20422;-82
2021/07/22 10:31:52;;;;;;;20.53;16.60;;;;;;;;;;3556187;40;20430;-83
2021/07/22 10:34:19;;;;;;;17.90;16.00;;;;;;;;;;3547164;40;20442;-83
2021/07/22 10:36:48;;;;;;;19.37;15.67;;;;;;;;;;3537071;40;20415;-82
2021/07/22 10:39:15;;;;;;;22.37;15.77;;;;;;;;;;3551958;40;20431;-82
2021/07/22 10:41:42;;;;;;;21.27;16.30;;;;;;;;;;3545174;40;20419;-82
2021/07/22 10:44:21;;;;;;;20.23;17.57;;;;;;;;;;3553126;40;20422;-82
2021/07/22 10:47:06;;;;;;;16.70;14.90;;;;;;;;;;3544253;40;20544;-82
2021/07/22 10:49:39;;;;;;;19.80;17.90;;;;;;;;;;3553244;40;20419;-83
2021/07/22 10:52:07;;;;;;;22.23;19.30;;;;;;;;;;3546635;40;20726;-83
2021/07/22 10:54:39;;;;;;;21.00;18.90;;;;;;;;;;3556302;40;20412;-81
2021/07/22 10:57:30;;;;;;;21.00;17.93;;;;;;;;;;3546614;40;20400;-82
2021/07/22 10:59:59;;;;;;;19.87;17.53;;;;;;;;;;3541145;40;21216;-83
2021/07/22 11:02:40;;;;;;;19.30;17.30;;;;;;;;;;3553280;40;20427;-83
2021/07/22 11:05:06;;;;;;;21.43;18.40;;;;;;;;;;3545537;40;20892;-82
2021/07/22 11:07:32;;;;;;;21.47;19.27;;;;;;;;;;3565644;40;20402;-82
2021/07/22 11:10:00;;;;;;;20.10;18.00;;;;;;;;;;3574202;40;20508;-83
2021/07/22 11:12:44;;;;;;;20.33;18.33;;;;;;;;;;3564880;40;20424;-82
2021/07/22 11:15:18;;;;;;;20.57;18.30;;;;;;;;;;3567240;40;20414;-83
2021/07/22 11:17:46;;;;;;;18.87;17.27;;;;;;;;;;3576329;40;20442;-82
2021/07/22 11:20:25;;;;;;;19.80;17.03;;;;;;;;;;3574744;40;20418;-83
2021/07/22 11:22:51;;;;;;;17.63;15.80;;;;;;;;;;3573442;40;20382;-82
2021/07/22 11:25:18;;;;;;;19.03;17.43;;;;;;;;;;3557933;40;20697;-82
2021/07/22 11:27:48;;;;;;;17.27;14.50;;;;;;;;;;3563293;40;20424;-82
2021/07/22 11:30:18;;;;;;;16.93;15.00;;;;;;;;;;3558034;40;20825;-82
2021/07/22 11:32:44;;;;;;;16.33;14.60;;;;;;;;;;3563341;40;20405;-82
2021/07/22 11:35:11;;;;;;;18.43;14.40;;;;;;;;;;3552694;40;20821;-82
2021/07/22 11:37:39;;;;;;;15.47;13.97;;;;;;;;;;3563421;40;20998;-82
2021/07/22 11:40:11;;;;;;;16.73;13.30;;;;;;;;;;3563892;40;20421;-83
2021/07/22 11:42:51;;;;;;;14.40;12.90;;;;;;;;;;3554489;40;20398;-82
2021/07/22 11:45:18;;;;;;;16.37;14.67;;;;;;;;;;3564189;40;20406;-82
2021/07/22 11:47:45;;;;;;;16.10;14.50;;;;;;;;;;3564113;40;20579;-83
2021/07/22 11:50:12;;;;;;;20.47;18.10;;;;;;;;;;3562469;40;20409;-82
2021/07/22 11:52:38;;;;;;;25.63;22.90;;;;;;;;;;3565381;40;20831;-82
2021/07/22 11:55:09;;;;;;;27.27;24.43;;;;;;;;;;3554587;40;20766;-81
2021/07/22 11:57:41;;;;;;;29.90;24.63;;;;;;;;;;3562788;40;20992;-81
2021/07/22 12:00:14;;;;;;;27.33;24.87;;;;;;;;;;3572962;40;20412;-83
2021/07/22 12:02:43;;;;;;;30.57;27.47;;;;;;;;;;3557364;40;20482;-81
2021/07/22 12:05:10;;;;;;;26.63;23.10;;;;;;;;;;3557352;40;20713;-82
2021/07/22 12:07:36;;;;;;;25.17;22.57;;;;;;;;;;3564549;40;20420;-82
2021/07/22 12:10:02;;;;;;;25.70;23.20;;;;;;;;;;3556617;40;20422;-83
2021/07/22 12:12:28;;;;;;;27.30;24.50;;;;;;;;;;3563758;40;20569;-83
2021/07/22 12:15:07;;;;;;;23.93;21.47;;;;;;;;;;3572292;40;20416;-82
2021/07/22 12:17:34;;;;;;;22.90;20.63;;;;;;;;;;3572690;40;20413;-82
2021/07/22 12:20:01;;;;;;;19.80;17.77;;;;;;;;;;3551413;40;20967;-81
2021/07/22 12:22:29;;;;;;;20.03;18.03;;;;;;;;;;3552564;40;20411;-82
2021/07/22 12:25:31;;;;;;;22.20;19.87;;;;;;;;;;3541740;40;20415;-82
2021/07/22 12:27:58;;;;;;;20.80;18.80;;;;;;;;;;3520304;40;20418;-81
2021/07/22 12:30:24;;;;;;;18.27;16.37;;;;;;;;;;3522634;40;20437;-82
2021/07/22 12:32:51;;;;;;;18.27;16.60;;;;;;;;;;3523585;40;21177;-81
2021/07/22 12:35:30;;;;;;;15.23;13.73;;;;;;;;;;3522539;40;20610;-82
2021/07/22 12:38:01;;;;;;;17.07;15.30;;;;;;;;;;3519260;40;20553;-83
2021/07/22 12:40:34;;;;;;;17.17;15.60;;;;;;;;;;3521086;40;20429;-81
2021/07/22 12:43:01;;;;;;;16.20;14.60;;;;;;;;;;3527173;40;20429;-82
2021/07/22 12:45:29;;;;;;;15.87;14.37;;;;;;;;;;3515330;40;20508;-81
2021/07/22 12:47:56;;;;;;;17.27;14.03;;;;;;;;;;3509573;40;20634;-80
2021/07/22 12:50:32;;;;;;;15.93;14.43;;;;;;;;;;3530331;40;20436;-81
2021/07/22 12:53:03;;;;;;;16.00;13.80;;;;;;;;;;3530836;40;20397;-83
2021/07/22 12:55:32;;;;;;;16.30;14.70;;;;;;;;;;3519418;40;20560;-83
2021/07/22 12:58:07;;;;;;;16.13;14.53;;;;;;;;;;3517382;40;20418;-82
2021/07/22 13:00:43;;;;;;;16.10;14.73;;;;;;;;;;3508372;40;20430;-81
2021/07/22 13:03:11;;;;;;;15.20;13.90;;;;;;;;;;3546650;40;20417;-81
2021/07/22 13:05:37;;;;;;;15.00;13.23;;;;;;;;;;3562865;40;20442;-81
2021/07/22 13:08:04;;;;;;;14.30;12.60;;;;;;;;;;3555400;40;20409;-82
2021/07/22 13:10:30;;;;;;;14.33;13.03;;;;;;;;;;3572526;40;20421;-81
2021/07/22 13:13:04;;;;;;;11.30;10.30;;;;;;;;;;3561816;40;20428;-82
2021/07/22 13:15:30;;;;;;;15.87;14.07;;;;;;;;;;3562852;40;20429;-81
2021/07/22 13:17:56;;;;;;;13.17;11.67;;;;;;;;;;3563369;40;20835;-82
2021/07/22 13:20:22;;;;;;;13.07;11.83;;;;;;;;;;3561376;40;20774;-81
2021/07/22 13:22:48;;;;;;;13.17;12.13;;;;;;;;;;3555921;40;20389;-81
2021/07/22 13:25:15;;;;;;;15.10;13.80;;;;;;;;;;3547669;40;20441;-82
2021/07/22 13:27:42;;;;;;;12.73;11.70;;;;;;;;;;3558532;40;21030;-81
2021/07/22 13:30:10;;;;;;;14.10;12.80;;;;;;;;;;3570812;40;20445;-81
2021/07/22 13:32:37;;;;;;;14.53;12.43;;;;;;;;;;3562205;40;20398;-82
2021/07/22 13:35:05;;;;;;;15.73;14.17;;;;;;;;;;3565067;40;20417;-82
2021/07/22 13:37:32;;;;;;;14.47;13.27;;;;;;;;;;3563152;40;20440;-81
2021/07/22 13:39:58;;;;;;;14.17;12.80;;;;;;;;;;3564696;40;20535;-81
2021/07/22 13:42:25;;;;;;;13.50;12.30;;;;;;;;;;3559100;40;20426;-81
2021/07/22 13:44:51;;;;;;;11.60;10.50;;;;;;;;;;3555164;40;20436;-81
2021/07/22 13:47:18;;;;;;;11.87;10.87;;;;;;;;;;3556512;40;21114;-81
2021/07/22 13:49:45;;;;;;;12.40;11.40;;;;;;;;;;3566345;40;20472;-80
2021/07/22 13:52:11;;;;;;;12.87;11.60;;;;;;;;;;3574206;40;20397;-81
2021/07/22 13:54:43;;;;;;;11.80;10.90;;;;;;;;;;3564212;40;20418;-81
2021/07/22 13:57:11;;;;;;;11.53;10.60;;;;;;;;;;3565743;40;20422;-81
2021/07/22 13:59:43;;;;;;;17.50;11.60;;;;;;;;;;3551205;40;20447;-82
2021/07/22 14:02:10;;;;;;;10.87;9.87;;;;;;;;;;3571461;40;20420;-84
2021/07/22 14:04:36;;;;;;;10.63;9.73;;;;;;;;;;3556281;40;21162;-81
2021/07/22 14:07:03;;;;;;;12.23;11.13;;;;;;;;;;3554299;40;20476;-80
2021/07/22 14:09:29;;;;;;;12.67;11.50;;;;;;;;;;3554198;40;20476;-80
2021/07/22 14:11:55;;;;;;;12.43;11.27;;;;;;;;;;3574484;40;20378;-81
2021/07/22 14:14:21;;;;;;;12.40;11.30;;;;;;;;;;3555784;40;20410;-79
2021/07/22 14:16:47;;;;;;;12.00;10.87;;;;;;;;;;3562910;40;20427;-81
2021/07/22 14:19:14;;;;;;;11.20;10.07;;;;;;;;;;3555130;40;20736;-81
2021/07/22 14:21:41;;;;;;;11.87;10.87;;;;;;;;;;3565808;40;20469;-82